Time;durP1;ratioP1;P1;durP2;ratioP2;P2;SDS_P1;SDS_P2;PMS_P1;PMS_P2;Temp;Humidity;BMP_temperature;BMP_pressure;BME280_temperature;BME280_humidity;BME280_pressure;Samples;Min_cycle;Max_cycle;Signal;HPM_P1;HPM_P2
2021/06/24 00:01:34;;;;;;;11.30;7.05;;;17.00;79.90;;;;;;4918605;28;20116;-81
2021/06/24 00:03:59;;;;;;;10.55;7.65;;;17.00;79.70;;;;;;4976105;28;20105;-83
2021/06/24 00:06:25;;;;;;;13.20;7.85;;;17.00;80.30;;;;;;4919094;28;20033;-82
2021/06/24 00:08:50;;;;;;;10.52;8.30;;;17.00;79.90;;;;;;4921949;28;20134;-82
2021/06/24 00:11:16;;;;;;;10.05;6.63;;;16.80;80.20;;;;;;4925621;28;20408;-83
2021/06/24 00:13:42;;;;;;;9.05;7.65;;;17.00;79.70;;;;;;4949675;28;20066;-82
2021/06/24 00:16:07;;;;;;;9.60;7.63;;;17.10;80.10;;;;;;4921134;28;20032;-83
2021/06/24 00:18:33;;;;;;;12.70;8.25;;;16.90;80.00;;;;;;4897803;28;20031;-83
2021/06/24 00:20:59;;;;;;;12.63;7.60;;;16.90;78.90;;;;;;4918639;28;20484;-83
2021/06/24 00:23:24;;;;;;;6.45;4.40;;;16.90;80.50;;;;;;4925654;28;20106;-83
2021/06/24 00:25:50;;;;;;;8.45;6.18;;;16.90;79.40;;;;;;4893674;28;20040;-83
2021/06/24 00:28:16;;;;;;;12.95;7.50;;;16.90;78.90;;;;;;4898922;28;20749;-83
2021/06/24 00:30:47;;;;;;;8.10;6.22;;;16.90;79.00;;;;;;4912747;28;20039;-83
2021/06/24 00:33:13;;;;;;;12.43;7.85;;;16.90;78.60;;;;;;4986383;28;20510;-83
2021/06/24 00:35:39;;;;;;;13.02;8.15;;;16.90;78.50;;;;;;4947067;28;20059;-84
2021/06/24 00:38:05;;;;;;;11.38;7.28;;;16.80;80.50;;;;;;4976943;28;20435;-84
2021/06/24 00:40:36;;;;;;;13.57;7.47;;;16.80;78.60;;;;;;4941616;28;20083;-83
2021/06/24 00:43:09;;;;;;;16.90;7.80;;;16.80;78.40;;;;;;4977349;28;20029;-83
2021/06/24 00:45:35;;;;;;;15.45;7.70;;;16.70;79.40;;;;;;4942043;28;20039;-84
2021/06/24 00:48:01;;;;;;;12.30;8.85;;;16.70;80.30;;;;;;4912865;28;20126;-83
2021/06/24 00:50:26;;;;;;;11.55;8.55;;;16.70;81.30;;;;;;4903877;28;20034;-83
2021/06/24 00:52:52;;;;;;;14.10;8.77;;;16.70;80.60;;;;;;4902890;28;20455;-84
2021/06/24 00:55:17;;;;;;;12.05;8.23;;;16.60;80.80;;;;;;4918454;28;20036;-84
2021/06/24 00:57:43;;;;;;;14.25;8.98;;;16.70;80.50;;;;;;4907407;28;20024;-84
2021/06/24 01:00:09;;;;;;;11.77;9.00;;;16.70;79.60;;;;;;4917781;28;20040;-84
2021/06/24 01:02:36;;;;;;;16.52;10.13;;;16.70;79.70;;;;;;4886915;28;20115;-83
2021/06/24 01:05:01;;;;;;;16.23;9.38;;;16.60;80.00;;;;;;4974161;28;20049;-82
2021/06/24 01:07:27;;;;;;;13.43;9.40;;;16.60;82.70;;;;;;4935883;28;20320;-84
2021/06/24 01:09:53;;;;;;;14.00;9.70;;;16.60;81.60;;;;;;4987801;28;20038;-84
2021/06/24 01:12:18;;;;;;;15.70;10.10;;;16.50;81.50;;;;;;4924847;28;20103;-82
2021/06/24 01:14:44;;;;;;;15.13;9.43;;;16.60;83.50;;;;;;4912684;28;20250;-84
2021/06/24 01:17:09;;;;;;;12.70;9.32;;;16.60;82.00;;;;;;4934807;28;20123;-84
2021/06/24 01:19:35;;;;;;;20.77;10.45;;;16.60;81.00;;;;;;4896571;28;20047;-84
2021/06/24 01:22:01;;;;;;;14.68;9.13;;;16.60;82.20;;;;;;4916279;28;20031;-83
2021/06/24 01:24:26;;;;;;;16.90;10.48;;;16.60;81.90;;;;;;4933152;28;20044;-82
2021/06/24 01:26:51;;;;;;;12.10;9.13;;;16.50;82.20;;;;;;4936299;28;20036;-84
2021/06/24 01:29:17;;;;;;;14.18;10.50;;;16.50;84.70;;;;;;4905843;28;20032;-84
2021/06/24 01:31:43;;;;;;;15.05;10.80;;;16.50;83.60;;;;;;4923812;28;20046;-84
2021/06/24 01:34:09;;;;;;;20.25;10.40;;;16.40;82.20;;;;;;4924615;28;20060;-84
2021/06/24 01:36:35;;;;;;;18.08;10.93;;;16.40;84.70;;;;;;4886798;28;20379;-85
2021/06/24 01:39:02;;;;;;;14.30;10.50;;;16.40;84.40;;;;;;4900385;28;20107;-83
2021/06/24 01:41:28;;;;;;;14.93;10.50;;;16.40;83.40;;;;;;4926087;28;20507;-83
2021/06/24 01:43:53;;;;;;;13.90;10.45;;;16.40;84.60;;;;;;4939379;28;20035;-83
2021/06/24 01:46:19;;;;;;;17.08;10.85;;;16.30;86.30;;;;;;4898664;28;20119;-83
2021/06/24 01:48:44;;;;;;;14.98;10.85;;;16.30;85.30;;;;;;4905224;28;20115;-83
2021/06/24 01:51:10;;;;;;;19.95;13.23;;;16.40;85.70;;;;;;4993090;28;20090;-84
2021/06/24 01:53:35;;;;;;;17.35;11.98;;;16.40;85.90;;;;;;4919850;28;20035;-84
2021/06/24 01:56:01;;;;;;;16.83;11.60;;;16.30;85.40;;;;;;4942436;28;20087;-83
2021/06/24 01:58:27;;;;;;;13.00;10.50;;;16.40;84.70;;;;;;4925209;28;20110;-84
2021/06/24 02:00:57;;;;;;;15.80;10.95;;;16.30;84.50;;;;;;4925972;28;20035;-83
2021/06/24 02:03:22;;;;;;;16.52;13.05;;;16.40;84.90;;;;;;4917975;28;20497;-83
2021/06/24 02:05:50;;;;;;;17.45;11.75;;;16.30;84.90;;;;;;4935636;28;20079;-84
2021/06/24 02:08:16;;;;;;;21.50;12.07;;;16.30;84.50;;;;;;4916019;28;20484;-83
2021/06/24 02:10:42;;;;;;;12.05;10.77;;;16.30;85.50;;;;;;4898335;28;20400;-83
2021/06/24 02:13:08;;;;;;;16.92;11.75;;;16.30;85.50;;;;;;4921613;28;20040;-82
2021/06/24 02:15:34;;;;;;;16.88;11.93;;;16.30;84.60;;;;;;4907753;28;20047;-84
2021/06/24 02:17:59;;;;;;;13.93;11.40;;;16.20;85.70;;;;;;4911858;28;20036;-83
2021/06/24 02:20:25;;;;;;;17.92;12.88;;;16.10;88.20;;;;;;4913315;28;20456;-83
2021/06/24 02:22:50;;;;;;;13.77;11.98;;;16.20;87.80;;;;;;4903701;28;20032;-83
2021/06/24 02:25:16;;;;;;;18.70;11.65;;;16.10;87.40;;;;;;4914121;28;20116;-84
2021/06/24 02:27:42;;;;;;;16.50;12.57;;;16.10;88.00;;;;;;4906029;28;20036;-82
2021/06/24 02:30:08;;;;;;;17.63;12.25;;;16.10;87.10;;;;;;4925217;28;20111;-84
2021/06/24 02:32:33;;;;;;;18.15;12.25;;;16.10;87.40;;;;;;4918968;28;20032;-83
2021/06/24 02:34:59;;;;;;;23.60;12.75;;;16.00;87.20;;;;;;4906089;28;20032;-83
2021/06/24 02:37:24;;;;;;;14.27;11.13;;;16.10;87.70;;;;;;4892428;28;20032;-83
2021/06/24 02:39:50;;;;;;;15.85;12.80;;;16.00;87.30;;;;;;4921508;28;20028;-84
2021/06/24 02:42:15;;;;;;;20.42;12.38;;;16.00;88.00;;;;;;4894492;28;20028;-84
2021/06/24 02:44:42;;;;;;;15.07;11.75;;;16.00;87.10;;;;;;4934144;28;20032;-83
2021/06/24 02:47:08;;;;;;;16.58;12.90;;;16.00;86.90;;;;;;4930507;28;20032;-83
2021/06/24 02:49:33;;;;;;;14.73;12.68;;;16.00;86.70;;;;;;4928242;28;20055;-84
2021/06/24 02:51:59;;;;;;;16.15;10.82;;;16.00;86.40;;;;;;4984403;28;20035;-84
2021/06/24 02:54:24;;;;;;;14.15;10.75;;;15.90;86.70;;;;;;4928000;28;20047;-84
2021/06/24 02:56:50;;;;;;;17.00;12.38;;;16.00;86.40;;;;;;4902077;28;20052;-83
2021/06/24 02:59:25;;;;;;;11.77;10.25;;;15.90;86.60;;;;;;4946183;28;20043;-83
2021/06/24 03:01:51;;;;;;;20.55;13.25;;;15.90;87.30;;;;;;4903557;28;20492;-83
2021/06/24 03:04:20;;;;;;;17.55;10.80;;;15.90;88.00;;;;;;4935930;28;20134;-83
2021/06/24 03:06:46;;;;;;;17.35;12.82;;;15.90;87.60;;;;;;4889561;28;20029;-83
2021/06/24 03:09:11;;;;;;;17.30;12.80;;;16.00;86.80;;;;;;4928854;28;20038;-83
2021/06/24 03:11:37;;;;;;;17.35;12.48;;;15.90;87.10;;;;;;4908261;28;20036;-84
2021/06/24 03:14:03;;;;;;;19.17;12.70;;;15.80;86.70;;;;;;4904532;28;20042;-84
2021/06/24 03:16:28;;;;;;;24.50;13.60;;;15.80;86.70;;;;;;4928833;28;20041;-83
2021/06/24 03:18:54;;;;;;;12.82;9.88;;;15.80;86.80;;;;;;4976067;28;20123;-81
2021/06/24 03:21:20;;;;;;;22.35;12.05;;;15.70;87.30;;;;;;4912461;28;20111;-82
2021/06/24 03:23:45;;;;;;;17.67;13.00;;;15.80;87.60;;;;;;4902624;28;20043;-84
2021/06/24 03:26:11;;;;;;;20.52;13.88;;;15.70;88.00;;;;;;4916036;28;20040;-83
2021/06/24 03:28:36;;;;;;;20.52;12.82;;;15.70;87.90;;;;;;4900271;28;20031;-84
2021/06/24 03:31:02;;;;;;;23.50;13.02;;;15.70;87.50;;;;;;4973629;28;20122;-83
2021/06/24 03:33:28;;;;;;;16.60;12.73;;;15.70;88.80;;;;;;4943718;28;20035;-83
2021/06/24 03:35:53;;;;;;;14.90;12.77;;;15.70;89.60;;;;;;4987044;28;20388;-83
2021/06/24 03:38:19;;;;;;;19.10;13.05;;;15.70;88.60;;;;;;4901970;28;20036;-82
2021/06/24 03:40:44;;;;;;;21.67;14.68;;;15.60;89.70;;;;;;4909476;28;20103;-83
2021/06/24 03:43:10;;;;;;;22.20;13.48;;;15.60;89.20;;;;;;4923273;28;20143;-83
2021/06/24 03:45:37;;;;;;;24.73;14.00;;;15.60;89.20;;;;;;4911506;28;20427;-83
2021/06/24 03:48:03;;;;;;;19.45;13.52;;;15.60;90.00;;;;;;4922136;28;20032;-82
2021/06/24 03:50:28;;;;;;;24.23;14.10;;;15.60;89.20;;;;;;4936130;28;20412;-83
2021/06/24 03:52:54;;;;;;;21.77;12.32;;;15.60;89.60;;;;;;4911808;28;20115;-83
2021/06/24 03:55:35;;;;;;;18.60;13.07;;;15.60;88.50;;;;;;4920920;28;20392;-81
2021/06/24 03:58:00;;;;;;;21.58;13.45;;;15.60;89.00;;;;;;4931935;28;20036;-82
2021/06/24 04:00:26;;;;;;;25.27;14.68;;;15.60;89.40;;;;;;4930964;28;20412;-82
2021/06/24 04:02:52;;;;;;;28.77;12.98;;;15.60;90.00;;;;;;4921940;28;20039;-82
2021/06/24 04:05:17;;;;;;;18.33;13.45;;;15.60;89.40;;;;;;4923959;28;20050;-82
2021/06/24 04:07:43;;;;;;;18.95;13.55;;;15.60;88.20;;;;;;4943535;28;20070;-82
2021/06/24 04:10:09;;;;;;;19.40;13.35;;;15.60;90.50;;;;;;4950917;28;20032;-80
2021/06/24 04:12:34;;;;;;;20.40;13.73;;;15.60;89.90;;;;;;4916186;28;20055;-82
2021/06/24 04:15:00;;;;;;;16.02;12.43;;;15.60;90.00;;;;;;5007127;28;20510;-82
2021/06/24 04:17:25;;;;;;;22.98;13.32;;;15.60;89.90;;;;;;4910889;28;20072;-81
2021/06/24 04:19:51;;;;;;;24.17;14.15;;;15.70;89.10;;;;;;4937414;28;20516;-82
2021/06/24 04:22:16;;;;;;;22.52;12.30;;;15.70;89.30;;;;;;4937527;28;20036;-81
2021/06/24 04:24:42;;;;;;;19.30;13.15;;;15.70;89.00;;;;;;4942833;28;20040;-82
2021/06/24 04:27:07;;;;;;;19.77;13.75;;;15.70;89.70;;;;;;5006882;28;20078;-82
2021/06/24 04:29:33;;;;;;;24.15;13.77;;;15.70;89.90;;;;;;4949195;28;20114;-82
2021/06/24 04:32:01;;;;;;;16.73;12.98;;;15.80;90.00;;;;;;4950687;28;20578;-83
2021/06/24 04:34:27;;;;;;;25.50;13.70;;;15.80;89.90;;;;;;4935589;28;20041;-81
2021/06/24 04:36:52;;;;;;;21.90;12.68;;;15.80;90.30;;;;;;4953357;28;20068;-82
2021/06/24 04:39:18;;;;;;;19.60;13.90;;;15.80;89.90;;;;;;4928879;28;20039;-81
2021/06/24 04:41:43;;;;;;;26.10;13.88;;;15.90;90.70;;;;;;4930510;28;20036;-81
2021/06/24 04:44:09;;;;;;;21.85;14.25;;;15.90;90.50;;;;;;4980475;28;20099;-81
2021/06/24 04:46:34;;;;;;;18.98;14.05;;;15.90;90.40;;;;;;4909637;28;20032;-84
2021/06/24 04:49:00;;;;;;;25.02;15.43;;;15.90;90.50;;;;;;5006349;28;20020;-82
2021/06/24 04:51:25;;;;;;;22.92;14.77;;;15.80;90.90;;;;;;4928860;28;20124;-81
2021/06/24 04:53:51;;;;;;;23.23;15.18;;;15.90;90.80;;;;;;4933878;28;20032;-84
2021/06/24 04:56:16;;;;;;;18.67;12.55;;;15.80;91.00;;;;;;4933217;28;20028;-82
2021/06/24 04:58:42;;;;;;;21.17;14.30;;;15.90;90.60;;;;;;4943040;28;20029;-82
2021/06/24 05:01:07;;;;;;;20.42;14.95;;;15.90;90.80;;;;;;4951948;28;20050;-83
2021/06/24 05:03:39;;;;;;;20.90;13.63;;;16.00;90.80;;;;;;4952479;28;20039;-83
2021/06/24 05:06:07;;;;;;;21.48;15.18;;;16.10;91.10;;;;;;4907896;28;20104;-82
2021/06/24 05:08:34;;;;;;;23.40;15.88;;;16.10;91.20;;;;;;4946524;28;20032;-83
2021/06/24 05:10:59;;;;;;;20.58;14.10;;;16.20;91.30;;;;;;4993649;28;20059;-84
2021/06/24 05:13:25;;;;;;;19.80;15.13;;;16.30;91.10;;;;;;4916189;28;20059;-83
2021/06/24 05:15:50;;;;;;;22.30;14.55;;;16.30;90.60;;;;;;4921260;28;20039;-83
2021/06/24 05:18:16;;;;;;;26.38;15.98;;;16.40;90.50;;;;;;4918302;28;20044;-84
2021/06/24 05:20:43;;;;;;;18.85;13.05;;;16.60;90.30;;;;;;4911705;28;20036;-83
2021/06/24 05:23:09;;;;;;;18.27;11.90;;;16.60;90.40;;;;;;4937570;28;20101;-83
2021/06/24 05:25:37;;;;;;;18.60;14.43;;;16.60;90.10;;;;;;4924504;28;20029;-83
2021/06/24 05:28:03;;;;;;;20.85;13.88;;;16.70;90.70;;;;;;4974193;28;20032;-83
2021/06/24 05:30:29;;;;;;;19.75;13.73;;;16.80;90.90;;;;;;4927535;28;20055;-83
2021/06/24 05:32:54;;;;;;;21.25;14.63;;;16.80;90.50;;;;;;4919438;28;20060;-83
2021/06/24 05:35:20;;;;;;;21.38;14.88;;;16.90;90.90;;;;;;4922155;28;20553;-83
2021/06/24 05:37:45;;;;;;;21.70;14.00;;;17.00;90.70;;;;;;4941826;28;20133;-82
2021/06/24 05:40:11;;;;;;;18.73;13.52;;;17.10;90.90;;;;;;4978198;28;20032;-82
2021/06/24 05:42:37;;;;;;;24.50;14.00;;;17.20;90.90;;;;;;4894128;28;20689;-82
2021/06/24 05:45:04;;;;;;;24.65;14.00;;;17.30;90.80;;;;;;4939515;28;20032;-83
2021/06/24 05:47:29;;;;;;;21.70;15.63;;;17.40;90.90;;;;;;4925987;28;20074;-82
2021/06/24 05:49:55;;;;;;;16.60;14.70;;;17.50;90.60;;;;;;4910933;28;20815;-82
2021/06/24 05:52:20;;;;;;;21.15;14.38;;;17.60;90.70;;;;;;4909949;28;20059;-82
2021/06/24 05:54:46;;;;;;;22.60;14.75;;;17.60;90.80;;;;;;4927459;28;20039;-82
2021/06/24 05:57:13;;;;;;;27.00;15.00;;;17.70;90.80;;;;;;4924330;28;20047;-82
2021/06/24 05:59:39;;;;;;;22.85;14.60;;;17.80;90.80;;;;;;4955209;28;20054;-82
2021/06/24 06:02:05;;;;;;;17.63;14.35;;;17.90;90.70;;;;;;4928708;28;20035;-82
2021/06/24 06:04:30;;;;;;;24.25;15.45;;;18.10;90.60;;;;;;4936273;28;20043;-82
2021/06/24 06:06:56;;;;;;;22.02;14.90;;;18.10;90.70;;;;;;4973823;28;20036;-82
2021/06/24 06:09:21;;;;;;;18.88;14.40;;;18.20;90.60;;;;;;4917642;28;20067;-82
2021/06/24 06:11:47;;;;;;;23.88;15.05;;;18.20;90.40;;;;;;4894196;28;20036;-82
2021/06/24 06:14:13;;;;;;;21.67;15.60;;;18.30;90.40;;;;;;4924534;28;20036;-82
2021/06/24 06:16:38;;;;;;;23.85;15.23;;;18.40;90.40;;;;;;4895406;28;20031;-81
2021/06/24 06:19:04;;;;;;;20.58;15.05;;;18.50;90.30;;;;;;4918309;28;20116;-82
2021/06/24 06:21:30;;;;;;;20.30;14.40;;;18.60;90.20;;;;;;4914703;28;20087;-82
2021/06/24 06:23:57;;;;;;;16.60;12.40;;;18.70;90.10;;;;;;4908766;28;20044;-82
2021/06/24 06:26:24;;;;;;;21.00;12.82;;;18.80;89.90;;;;;;4919725;28;20063;-82
2021/06/24 06:28:50;;;;;;;17.40;13.48;;;18.80;89.80;;;;;;4885864;28;20028;-82
2021/06/24 06:31:16;;;;;;;21.88;13.93;;;18.90;89.40;;;;;;4915597;28;20090;-81
2021/06/24 06:33:42;;;;;;;19.88;13.98;;;19.00;89.60;;;;;;4890437;28;20138;-81
2021/06/24 06:36:07;;;;;;;16.85;13.45;;;19.20;89.80;;;;;;4925801;28;20063;-81
2021/06/24 06:38:33;;;;;;;23.52;13.38;;;19.20;89.10;;;;;;4908423;28;20107;-81
2021/06/24 06:40:58;;;;;;;14.82;11.23;;;19.30;89.00;;;;;;4967705;28;20232;-82
2021/06/24 06:43:24;;;;;;;18.42;12.60;;;19.40;88.60;;;;;;4919182;28;20033;-82
2021/06/24 06:45:50;;;;;;;17.58;13.13;;;19.40;88.80;;;;;;4920265;28;20028;-81
2021/06/24 06:48:15;;;;;;;16.55;12.82;;;19.50;88.90;;;;;;4913209;28;20036;-82
2021/06/24 06:50:41;;;;;;;23.27;12.57;;;19.70;88.50;;;;;;4890446;28;20106;-81
2021/06/24 06:53:07;;;;;;;18.30;13.38;;;19.70;88.00;;;;;;4922200;28;20036;-82
2021/06/24 06:55:33;;;;;;;20.90;13.68;;;19.80;87.50;;;;;;4933625;28;20106;-82
2021/06/24 06:57:59;;;;;;;18.05;12.93;;;19.90;87.70;;;;;;4962177;28;20115;-82
2021/06/24 07:00:25;;;;;;;20.98;13.55;;;19.90;87.70;;;;;;4920559;28;20120;-81
2021/06/24 07:02:54;;;;;;;19.70;13.73;;;20.00;87.00;;;;;;4925431;28;20032;-82
2021/06/24 07:05:19;;;;;;;24.55;14.27;;;20.10;87.00;;;;;;4918795;28;20054;-81
2021/06/24 07:07:45;;;;;;;17.25;13.15;;;20.20;87.10;;;;;;4890857;28;20032;-81
2021/06/24 07:10:10;;;;;;;19.50;14.15;;;20.40;86.40;;;;;;4925708;28;20053;-82
2021/06/24 07:12:36;;;;;;;20.88;13.35;;;20.60;87.00;;;;;;4922982;28;20042;-82
2021/06/24 07:15:02;;;;;;;18.35;13.93;;;20.90;87.40;;;;;;4984817;28;20032;-81
2021/06/24 07:17:27;;;;;;;19.52;13.57;;;21.40;86.80;;;;;;4955308;28;20121;-81
2021/06/24 07:19:54;;;;;;;21.95;12.20;;;21.90;84.30;;;;;;4930918;28;20102;-82
2021/06/24 07:22:19;;;;;;;20.60;11.93;;;22.30;84.70;;;;;;4925820;28;20040;-82
2021/06/24 07:24:45;;;;;;;17.40;12.40;;;22.60;83.70;;;;;;4923959;29;20042;-82
2021/06/24 07:27:10;;;;;;;20.02;12.65;;;23.00;82.30;;;;;;4933026;28;20122;-81
2021/06/24 07:29:36;;;;;;;25.77;12.68;;;23.20;83.40;;;;;;4900709;28;20036;-82
2021/06/24 07:32:02;;;;;;;16.80;12.57;;;23.50;82.60;;;;;;4936875;28;20048;-81
2021/06/24 07:34:27;;;;;;;16.00;12.07;;;23.90;81.80;;;;;;4927447;28;20505;-81
2021/06/24 07:36:53;;;;;;;14.30;12.65;;;24.30;80.80;;;;;;4915348;28;20032;-82
2021/06/24 07:39:18;;;;;;;19.83;12.07;;;24.50;79.00;;;;;;4984829;28;20098;-81
2021/06/24 07:41:44;;;;;;;20.45;12.63;;;24.60;78.60;;;;;;4883956;28;20504;-81
2021/06/24 07:44:10;;;;;;;16.88;13.38;;;24.70;78.50;;;;;;4935871;28;20071;-81
2021/06/24 07:46:35;;;;;;;25.13;14.32;;;25.00;76.80;;;;;;4910939;28;20063;-81
2021/06/24 07:49:01;;;;;;;18.77;13.38;;;25.20;77.00;;;;;;4972434;28;20059;-81
2021/06/24 07:51:27;;;;;;;15.23;12.48;;;25.50;76.10;;;;;;4925382;28;20029;-81
2021/06/24 07:53:52;;;;;;;20.40;13.15;;;26.00;73.60;;;;;;4941446;28;20398;-81
2021/06/24 07:56:19;;;;;;;13.65;10.32;;;26.30;74.80;;;;;;4907402;28;20047;-81
2021/06/24 07:58:44;;;;;;;19.23;13.57;;;26.50;73.60;;;;;;4905889;28;20059;-81
2021/06/24 08:01:10;;;;;;;24.50;16.27;;;26.80;71.90;;;;;;4932729;28;20032;-81
2021/06/24 08:03:36;;;;;;;20.38;14.88;;;27.20;70.00;;;;;;4894287;28;20043;-81
2021/06/24 08:06:03;;;;;;;17.52;14.02;;;27.40;69.40;;;;;;4973424;28;20142;-80
2021/06/24 08:08:28;;;;;;;19.55;14.55;;;27.70;69.90;;;;;;4923696;28;20052;-80
2021/06/24 08:10:55;;;;;;;20.38;15.63;;;27.90;68.30;;;;;;4976405;28;20032;-80
2021/06/24 08:13:21;;;;;;;24.55;14.57;;;28.10;68.40;;;;;;4912027;28;20141;-81
2021/06/24 08:15:47;;;;;;;18.30;14.45;;;28.20;66.30;;;;;;4889935;28;20044;-81
2021/06/24 08:18:12;;;;;;;20.58;14.40;;;28.40;66.10;;;;;;4921934;28;20043;-81
2021/06/24 08:20:39;;;;;;;21.42;15.50;;;28.50;64.70;;;;;;4925777;28;20032;-80
2021/06/24 08:23:04;;;;;;;16.27;13.38;;;28.50;64.20;;;;;;5003323;28;20039;-81
2021/06/24 08:25:30;;;;;;;15.88;11.15;;;28.50;64.90;;;;;;4944546;28;20040;-81
2021/06/24 08:27:55;;;;;;;16.70;11.50;;;28.40;64.80;;;;;;5004252;28;20040;-81
2021/06/24 08:30:21;;;;;;;13.48;10.05;;;28.40;64.70;;;;;;4928418;28;20056;-81
2021/06/24 08:32:47;;;;;;;16.10;11.75;;;28.30;64.50;;;;;;4927376;28;20566;-81
2021/06/24 08:35:13;;;;;;;19.58;13.15;;;28.30;64.40;;;;;;4926274;28;20036;-81
2021/06/24 08:37:39;;;;;;;19.10;13.57;;;28.30;64.00;;;;;;4943193;28;20093;-82
2021/06/24 08:40:05;;;;;;;16.50;13.77;;;28.30;61.60;;;;;;4927506;28;20043;-82
2021/06/24 08:42:31;;;;;;;23.92;14.35;;;28.20;62.20;;;;;;4920624;28;20043;-82
2021/06/24 08:44:59;;;;;;;21.48;14.77;;;28.20;63.90;;;;;;4976556;28;20491;-83
2021/06/24 08:47:24;;;;;;;17.77;12.80;;;28.20;62.90;;;;;;4920199;28;20038;-82
2021/06/24 08:50:56;;;;;;;18.88;12.30;;;28.10;63.00;;;;;;4941976;28;20043;-81
2021/06/24 08:53:18;;;;;;;22.08;14.02;;;28.10;62.90;;;;;;4921453;28;20440;-80
2021/06/24 08:55:46;;;;;;;19.73;12.73;;;28.30;63.10;;;;;;4928521;28;20029;-80
2021/06/24 08:58:11;;;;;;;13.48;11.32;;;28.60;62.50;;;;;;4992375;28;20148;-81
2021/06/24 09:00:37;;;;;;;20.20;16.40;;;28.70;62.30;;;;;;4939048;28;20116;-80
2021/06/24 09:03:15;;;;;;;24.98;16.60;;;29.10;60.10;;;;;;4977235;28;20063;-79
2021/06/24 09:06:08;;;;;;;19.77;15.20;;;29.40;59.20;;;;;;4942898;28;20484;-79
2021/06/24 09:08:42;;;;;;;19.15;15.82;;;29.60;59.40;;;;;;4925555;28;20032;-80
2021/06/24 09:11:13;;;;;;;22.77;18.55;;;29.80;58.90;;;;;;4937699;28;20036;-79
2021/06/24 09:13:39;;;;;;;17.55;12.77;;;29.90;58.50;;;;;;4943650;28;20024;-79
2021/06/24 09:16:06;;;;;;;20.90;17.45;;;30.00;58.90;;;;;;4920995;28;21171;-79
2021/06/24 09:18:32;;;;;;;22.65;17.65;;;30.10;59.00;;;;;;4926925;28;20518;-78
2021/06/24 09:20:57;;;;;;;26.65;21.60;;;30.00;58.60;;;;;;4926910;28;20123;-78
2021/06/24 09:23:24;;;;;;;24.63;21.33;;;30.10;57.90;;;;;;4918900;28;20054;-78
2021/06/24 09:26:14;;;;;;;23.17;20.75;;;30.00;57.70;;;;;;4922198;28;20028;-78
2021/06/24 09:28:41;;;;;;;24.83;21.20;;;30.10;56.90;;;;;;4928075;28;20032;-79
2021/06/24 09:31:26;;;;;;;17.30;15.52;;;30.30;56.60;;;;;;4902621;28;20056;-78
2021/06/24 09:33:53;;;;;;;26.00;22.20;;;30.50;57.70;;;;;;4945675;28;20075;-78
2021/06/24 09:36:37;;;;;;;26.55;23.83;;;30.90;56.10;;;;;;4917870;28;20070;-78
2021/06/24 09:39:05;;;;;;;23.10;20.33;;;31.10;56.50;;;;;;4931076;28;20032;-77
2021/06/24 09:41:31;;;;;;;21.17;18.88;;;31.30;55.50;;;;;;4914560;28;20044;-77
2021/06/24 09:43:56;;;;;;;22.92;20.63;;;31.20;55.70;;;;;;4926452;28;20085;-78
2021/06/24 09:46:23;;;;;;;24.92;22.42;;;31.10;55.00;;;;;;4933879;28;20033;-79
2021/06/24 09:48:52;;;;;;;30.63;24.08;;;30.90;55.00;;;;;;4931187;28;20051;-78
2021/06/24 09:51:24;;;;;;;18.48;16.15;;;30.80;54.20;;;;;;4984478;28;20032;-77
2021/06/24 09:54:00;;;;;;;25.45;21.17;;;30.90;55.50;;;;;;4933043;28;20504;-78
2021/06/24 09:56:39;;;;;;;23.67;20.15;;;31.20;54.30;;;;;;4930450;28;20408;-78
2021/06/24 09:59:06;;;;;;;26.85;20.35;;;31.40;53.30;;;;;;4937550;28;20417;-78
2021/06/24 10:01:32;;;;;;;17.17;15.43;;;31.50;52.90;;;;;;4919247;28;20668;-78
2021/06/24 10:03:59;;;;;;;17.58;14.05;;;31.40;54.20;;;;;;4998397;28;20112;-76
2021/06/24 10:06:25;;;;;;;19.10;15.93;;;31.50;53.80;;;;;;4936404;28;20090;-78
2021/06/24 10:08:53;;;;;;;23.95;19.83;;;31.60;53.30;;;;;;4933072;28;20055;-78
2021/06/24 10:11:20;;;;;;;21.45;19.17;;;31.60;52.80;;;;;;4945095;28;20053;-78
2021/06/24 10:13:45;;;;;;;21.23;19.05;;;31.70;52.40;;;;;;4911948;28;20041;-78
2021/06/24 10:16:11;;;;;;;21.00;18.48;;;31.70;51.70;;;;;;4904603;28;20070;-79
2021/06/24 10:18:36;;;;;;;19.95;18.05;;;31.70;52.00;;;;;;4920394;28;20082;-79
2021/06/24 10:21:02;;;;;;;20.45;18.35;;;31.90;51.50;;;;;;4920614;28;20466;-77
2021/06/24 10:23:28;;;;;;;20.60;15.90;;;32.10;50.60;;;;;;4945655;28;20029;-78
2021/06/24 10:25:53;;;;;;;18.30;16.40;;;32.20;50.40;;;;;;4952458;28;20059;-79
2021/06/24 10:28:19;;;;;;;14.00;12.48;;;32.20;52.30;;;;;;4929433;28;20115;-79
2021/06/24 10:30:44;;;;;;;17.13;15.27;;;32.30;52.60;;;;;;4943588;28;20029;-80
2021/06/24 10:33:12;;;;;;;17.38;15.30;;;32.80;50.20;;;;;;4971892;28;20447;-79
2021/06/24 10:35:39;;;;;;;15.70;14.13;;;33.10;49.80;;;;;;4913766;28;20115;-80
2021/06/24 10:38:05;;;;;;;19.33;15.10;;;33.30;50.30;;;;;;4996229;28;20034;-79
2021/06/24 10:40:34;;;;;;;13.20;9.70;;;33.40;49.40;;;;;;4940720;28;20035;-79
2021/06/24 10:43:03;;;;;;;16.63;13.75;;;33.50;49.70;;;;;;4921587;28;20045;-79
2021/06/24 10:45:29;;;;;;;11.57;9.82;;;33.30;50.50;;;;;;4939493;28;20030;-80
2021/06/24 10:47:56;;;;;;;15.52;13.70;;;33.60;50.10;;;;;;4973917;28;20384;-80
2021/06/24 10:50:33;;;;;;;16.63;14.82;;;33.90;48.60;;;;;;4933257;28;20048;-80
2021/06/24 10:53:06;;;;;;;12.52;10.10;;;34.00;48.10;;;;;;4927259;28;20102;-80
2021/06/24 10:55:35;;;;;;;14.93;11.80;;;34.00;47.90;;;;;;4918117;28;20031;-80
2021/06/24 10:58:12;;;;;;;16.52;13.65;;;34.00;48.20;;;;;;4925539;28;20141;-80
2021/06/24 11:00:38;;;;;;;14.15;8.85;;;33.90;46.60;;;;;;4946711;28;20048;-80
2021/06/24 11:03:05;;;;;;;16.45;12.38;;;33.70;47.70;;;;;;4944626;28;20029;-80
2021/06/24 11:05:38;;;;;;;15.55;11.18;;;33.70;47.20;;;;;;4925492;28;20044;-80
2021/06/24 11:08:16;;;;;;;12.15;8.82;;;33.70;46.50;;;;;;5002168;28;20435;-80
2021/06/24 11:10:57;;;;;;;14.20;10.30;;;33.50;46.00;;;;;;4931338;28;20031;-80
2021/06/24 11:13:34;;;;;;;12.73;10.77;;;33.40;47.00;;;;;;4947673;28;20373;-80
2021/06/24 11:16:00;;;;;;;13.65;11.13;;;33.30;47.20;;;;;;4938398;28;20031;-80
2021/06/24 11:18:35;;;;;;;15.98;12.35;;;33.20;46.40;;;;;;4932630;28;20499;-80
2021/06/24 11:21:01;;;;;;;15.70;8.57;;;33.10;47.30;;;;;;4921137;28;20039;-80
2021/06/24 11:23:50;;;;;;;10.32;8.02;;;33.00;47.40;;;;;;4931247;28;20059;-79
2021/06/24 11:26:42;;;;;;;11.20;6.97;;;32.90;47.70;;;;;;4926800;28;20030;-79
2021/06/24 11:29:15;;;;;;;11.57;10.48;;;33.00;48.20;;;;;;4923823;28;20032;-80
2021/06/24 11:34:55;;;;;;;14.35;11.70;;;33.50;47.10;;;;;;4921373;28;20110;-80
2021/06/24 11:37:23;;;;;;;8.60;5.90;;;33.80;46.30;;;;;;4938312;28;20036;-80
2021/06/24 11:39:50;;;;;;;13.25;8.93;;;33.80;47.30;;;;;;4921600;28;20032;-79
2021/06/24 11:42:18;;;;;;;9.88;8.15;;;34.00;46.40;;;;;;4920582;28;20041;-80
2021/06/24 11:44:48;;;;;;;13.73;11.43;;;34.30;45.90;;;;;;4987234;28;20442;-80
2021/06/24 11:47:28;;;;;;;9.95;8.93;;;34.70;45.10;;;;;;4916255;28;20043;-80
2021/06/24 12:04:05;;;;;;;7.37;6.63;;;36.00;43.40;;;;;;4895460;28;1123987;-80
2021/06/24 12:07:08;;;;;;;12.82;9.82;;;35.80;43.50;;;;;;4933917;28;20658;-80
2021/06/24 12:09:45;;;;;;;8.85;5.65;;;35.80;42.50;;;;;;4931478;28;20059;-80
2021/06/24 12:12:24;;;;;;;10.00;9.10;;;35.60;42.70;;;;;;4967434;28;20295;-80
2021/06/24 12:14:51;;;;;;;14.57;11.55;;;35.40;42.70;;;;;;4921799;28;20036;-79
2021/06/24 12:17:22;;;;;;;13.93;7.38;;;35.30;42.60;;;;;;4904207;28;20032;-80
2021/06/24 12:20:12;;;;;;;9.88;8.23;;;35.00;42.50;;;;;;4985314;28;20496;-79
2021/06/24 12:22:59;;;;;;;12.23;10.38;;;34.90;42.80;;;;;;4906485;28;20031;-80
2021/06/24 12:25:29;;;;;;;18.38;10.05;;;34.70;42.30;;;;;;4933350;28;20043;-79
2021/06/24 12:27:56;;;;;;;12.13;9.63;;;34.70;42.80;;;;;;4901718;28;20063;-80
2021/06/24 12:30:29;;;;;;;11.02;9.75;;;34.70;43.20;;;;;;4930634;28;20340;-80
2021/06/24 12:33:03;;;;;;;14.60;10.05;;;34.70;43.40;;;;;;4941624;28;20461;-80
2021/06/24 12:35:39;;;;;;;14.80;11.32;;;34.60;42.40;;;;;;4915159;28;20405;-79
2021/06/24 12:38:08;;;;;;;12.20;10.93;;;34.50;41.30;;;;;;4937397;28;20044;-80
2021/06/24 12:40:39;;;;;;;12.52;10.70;;;34.40;42.00;;;;;;4923909;28;20413;-80
2021/06/24 12:43:05;;;;;;;10.73;9.73;;;34.20;41.90;;;;;;4924939;28;20110;-79
2021/06/24 12:45:35;;;;;;;13.07;10.30;;;34.00;41.30;;;;;;4941241;28;20032;-79
2021/06/24 12:48:01;;;;;;;7.85;7.15;;;33.90;42.00;;;;;;4925290;28;20038;-80